TimeCDT,TemperatureF,Dew PointF,Humidity,Sea Level PressureIn,VisibilityMPH,Wind Direction,Wind SpeedMPH,Gust SpeedMPH,PrecipitationIn,Events,Conditions,WindDirDegrees,DateUTC
12:15 AM,55.4,47.5,75,30.07,10.0,Calm,Calm,-,N/A,,Clear,0,2013-06-07 05:15:00
12:35 AM,56.3,47.7,73,30.07,10.0,Calm,Calm,-,N/A,,Clear,0,2013-06-07 05:35:00
12:55 AM,54.3,47.3,77,30.07,10.0,NE,3.5,-,N/A,,Clear,50,2013-06-07 05:55:00
1:15 AM,52.7,47.5,82,30.08,10.0,Calm,Calm,-,N/A,,Clear,0,2013-06-07 06:15:00
1:35 AM,49.8,45.9,86,30.07,10.0,NE,3.5,-,N/A,,Clear,50,2013-06-07 06:35:00
1:55 AM,50.4,46.8,87,30.08,10.0,Calm,Calm,-,N/A,,Scattered Clouds,0,2013-06-07 06:55:00
2:15 AM,49.8,46.2,87,30.08,10.0,Calm,Calm,-,N/A,,Clear,0,2013-06-07 07:15:00
2:35 AM,49.8,46.6,89,30.08,10.0,North,3.5,-,N/A,,Clear,350,2013-06-07 07:35:00
2:55 AM,48.6,46.0,91,30.08,10.0,North,3.5,-,N/A,,Mostly Cloudy,360,2013-06-07 07:55:00
3:15 AM,49.6,46.6,89,30.08,10.0,Calm,Calm,-,N/A,,Mostly Cloudy,0,2013-06-07 08:15:00
3:35 AM,49.8,47.1,90,30.08,10.0,Calm,Calm,-,N/A,,Overcast,0,2013-06-07 08:35:00
4:55 AM,49.6,47.3,92,30.06,10.0,NW,3.5,-,N/A,,Mostly Cloudy,320,2013-06-07 09:55:00
5:15 AM,49.3,46.9,92,30.06,10.0,Calm,Calm,-,N/A,,Scattered Clouds,0,2013-06-07 10:15:00
5:35 AM,48.6,46.6,93,30.06,10.0,West,3.5,-,N/A,,Scattered Clouds,270,2013-06-07 10:35:00
5:55 AM,49.1,46.8,92,30.07,10.0,West,4.6,-,N/A,,Mostly Cloudy,270,2013-06-07 10:55:00
6:15 AM,49.1,47.1,93,30.08,10.0,West,3.5,-,N/A,,Mostly Cloudy,270,2013-06-07 11:15:00
6:35 AM,49.3,47.3,93,30.07,10.0,West,3.5,-,N/A,,Mostly Cloudy,280,2013-06-07 11:35:00
6:55 AM,49.5,47.7,94,30.07,10.0,WNW,3.5,-,N/A,,Mostly Cloudy,300,2013-06-07 11:55:00
7:15 AM,51.1,49.3,94,30.07,10.0,Calm,Calm,-,N/A,,Mostly Cloudy,0,2013-06-07 12:15:00
7:35 AM,52.9,50.0,90,30.07,10.0,Calm,Calm,-,N/A,,Scattered Clouds,0,2013-06-07 12:35:00
7:55 AM,54.7,50.7,86,30.06,10.0,Calm,Calm,-,N/A,,Clear,0,2013-06-07 12:55:00
8:15 AM,56.7,50.9,81,30.06,10.0,Calm,Calm,-,N/A,,Clear,0,2013-06-07 13:15:00
8:35 AM,59.0,51.4,76,30.06,10.0,Calm,Calm,-,N/A,,Clear,0,2013-06-07 13:35:00
8:55 AM,60.4,51.6,73,30.06,10.0,Calm,Calm,-,N/A,,Clear,0,2013-06-07 13:55:00
9:15 AM,63.1,50.7,64,30.06,10.0,SE,4.6,-,N/A,,Clear,130,2013-06-07 14:15:00
9:35 AM,64.4,50.2,60,30.06,10.0,SE,4.6,-,N/A,,Clear,130,2013-06-07 14:35:00
9:55 AM,66.6,50.5,56,30.06,10.0,South,6.9,-,N/A,,Clear,180,2013-06-07 14:55:00
10:15 AM,66.9,50.9,56,30.05,10.0,SE,4.6,-,N/A,,Clear,140,2013-06-07 15:15:00
10:35 AM,68.5,50.4,52,30.04,10.0,Calm,Calm,-,N/A,,Clear,0,2013-06-07 15:35:00
10:55 AM,70.2,50.5,50,30.04,10.0,SSE,4.6,-,N/A,,Clear,160,2013-06-07 15:55:00
11:15 AM,70.7,50.0,48,30.03,10.0,SSE,8.1,-,N/A,,Clear,150,2013-06-07 16:15:00
11:35 AM,71.4,49.6,46,30.03,10.0,SE,6.9,-,N/A,,Clear,130,2013-06-07 16:35:00
11:55 AM,72.5,50.2,45,30.02,10.0,SE,3.5,-,N/A,,Clear,140,2013-06-07 16:55:00
12:15 PM,73.2,50.7,45,30.02,10.0,SE,3.5,-,N/A,,Clear,140,2013-06-07 17:15:00
12:35 PM,74.1,49.8,42,30.01,10.0,SSE,4.6,-,N/A,,Clear,150,2013-06-07 17:35:00
12:55 PM,75.2,50.4,42,30.00,10.0,SE,4.6,-,N/A,,Clear,140,2013-06-07 17:55:00
1:15 PM,75.2,49.6,41,29.99,10.0,Calm,Calm,-,N/A,,Clear,0,2013-06-07 18:15:00
1:35 PM,75.9,48.9,38,29.99,10.0,Calm,Calm,-,N/A,,Clear,0,2013-06-07 18:35:00
1:55 PM,77.2,46.0,33,29.98,10.0,West,3.5,-,N/A,,Clear,270,2013-06-07 18:55:00
2:15 PM,76.8,45.9,33,29.97,10.0,ENE,4.6,-,N/A,,Clear,70,2013-06-07 19:15:00
2:35 PM,77.2,45.7,33,29.96,10.0,North,3.5,-,N/A,,Clear,10,2013-06-07 19:35:00
2:55 PM,78.3,46.9,33,29.95,10.0,Calm,Calm,-,N/A,,Clear,0,2013-06-07 19:55:00
3:15 PM,78.8,47.1,33,29.94,10.0,SSW,4.6,-,N/A,,Clear,210,2013-06-07 20:15:00
3:35 PM,79.7,47.1,32,29.93,10.0,SSE,8.1,-,N/A,,Clear,160,2013-06-07 20:35:00
3:55 PM,79.7,45.9,30,29.93,10.0,SE,6.9,-,N/A,,Clear,140,2013-06-07 20:55:00
4:15 PM,80.4,46.2,30,29.92,10.0,SE,5.8,-,N/A,,Clear,130,2013-06-07 21:15:00
4:35 PM,81.5,46.2,29,29.91,10.0,South,5.8,-,N/A,,Clear,190,2013-06-07 21:35:00
4:55 PM,81.0,45.7,29,29.90,10.0,SSE,8.1,-,N/A,,Clear,160,2013-06-07 21:55:00
5:15 PM,81.5,45.9,29,29.90,10.0,SSW,6.9,-,N/A,,Clear,210,2013-06-07 22:15:00
5:35 PM,81.5,45.0,28,29.90,10.0,South,3.5,-,N/A,,Scattered Clouds,170,2013-06-07 22:35:00
5:55 PM,80.6,43.2,27,29.89,10.0,Calm,Calm,-,N/A,,Scattered Clouds,0,2013-06-07 22:55:00
6:15 PM,80.6,44.6,28,29.88,10.0,South,5.8,-,N/A,,Clear,170,2013-06-07 23:15:00
6:35 PM,81.0,43.3,26,29.87,10.0,SSW,4.6,-,N/A,,Clear,200,2013-06-07 23:35:00
6:55 PM,81.0,45.1,28,29.86,10.0,South,9.2,-,N/A,,Clear,180,2013-06-07 23:55:00
7:15 PM,80.6,46.9,31,29.86,10.0,SSE,10.4,-,N/A,,Clear,160,2013-06-08 00:15:00
7:35 PM,79.7,47.3,32,29.86,10.0,South,6.9,-,N/A,,Clear,180,2013-06-08 00:35:00
7:55 PM,78.3,48.7,35,29.86,10.0,South,11.5,-,N/A,,Clear,170,2013-06-08 00:55:00
8:15 PM,76.8,50.4,39,29.87,10.0,SSE,11.5,-,N/A,,Clear,160,2013-06-08 01:15:00
8:35 PM,75.2,51.3,43,29.86,10.0,SSE,10.4,-,N/A,,Clear,160,2013-06-08 01:35:00
8:55 PM,73.8,51.8,46,29.86,10.0,SSE,10.4,-,N/A,,Clear,150,2013-06-08 01:55:00
9:15 PM,72.0,52.7,51,29.86,10.0,SSE,9.2,-,N/A,,Clear,150,2013-06-08 02:15:00
9:35 PM,71.2,52.5,52,29.86,10.0,SSE,11.5,-,N/A,,Clear,150,2013-06-08 02:35:00
9:55 PM,70.7,52.3,52,29.86,10.0,SE,12.7,-,N/A,,Clear,140,2013-06-08 02:55:00
10:15 PM,69.8,52.7,54,29.86,10.0,SSE,12.7,-,N/A,,Clear,150,2013-06-08 03:15:00
10:35 PM,69.1,53.1,57,29.86,10.0,SSE,17.3,21.9,N/A,,Clear,160,2013-06-08 03:35:00
10:55 PM,68.4,53.4,59,29.85,10.0,SSE,15.0,19.6,N/A,,Clear,160,2013-06-08 03:55:00
11:15 PM,67.5,53.6,61,29.85,10.0,SSE,16.1,-,N/A,,Clear,150,2013-06-08 04:15:00
11:35 PM,66.7,53.8,63,29.85,10.0,SSE,16.1,-,N/A,,Clear,150,2013-06-08 04:35:00
11:55 PM,66.6,54.1,64,29.85,10.0,SSE,18.4,-,N/A,,Clear,160,2013-06-08 04:55:00